Time;durP1;ratioP1;P1;durP2;ratioP2;P2;SDS_P1;SDS_P2;PMS_P1;PMS_P2;Temp;Humidity;BMP_temperature;BMP_pressure;BME280_temperature;BME280_humidity;BME280_pressure;Samples;Min_cycle;Max_cycle;Signal;HPM_P1;HPM_P2
2024/04/07 00:00:24;;;;;;;;;;;16.70;99.90;;;;;;5112538;28;20512;-47
2024/04/07 00:02:50;;;;;;;;;;;16.70;99.90;;;;;;5113922;28;20363;-47
2024/04/07 00:05:16;;;;;;;;;;;16.70;99.90;;;;;;5109135;28;20039;-47
2024/04/07 00:07:42;;;;;;;;;;;16.70;99.90;;;;;;5110766;28;19943;-47
2024/04/07 00:10:08;;;;;;;;;;;16.70;99.90;;;;;;5117628;28;20399;-47
2024/04/07 00:12:34;;;;;;;;;;;16.80;99.90;;;;;;5118410;28;20272;-48
2024/04/07 00:15:00;;;;;;;;;;;16.80;99.90;;;;;;5112068;28;19908;-46
2024/04/07 00:17:25;;;;;;;;;;;16.80;99.90;;;;;;5098310;28;19919;-47
2024/04/07 00:19:51;;;;;;;;;;;16.80;99.90;;;;;;5098037;28;19923;-48
2024/04/07 00:22:16;;;;;;;;;;;16.80;99.90;;;;;;5101801;28;20013;-46
2024/04/07 00:24:43;;;;;;;;;;;16.80;99.90;;;;;;5105048;28;19914;-47
2024/04/07 00:27:08;;;;;;;;;;;16.70;99.90;;;;;;5102732;28;19908;-46
2024/04/07 00:29:34;;;;;;;;;;;16.80;99.90;;;;;;5102406;28;19915;-47
2024/04/07 00:31:59;;;;;;;;;;;16.80;99.90;;;;;;5089639;28;19917;-47
2024/04/07 00:34:25;;;;;;;;;;;16.80;99.90;;;;;;5105107;28;19919;-46
2024/04/07 00:36:50;;;;;;;;;;;16.80;99.90;;;;;;5102316;28;19912;-47
2024/04/07 00:39:16;;;;;;;;;;;16.80;99.90;;;;;;5097006;28;19908;-48
2024/04/07 00:41:42;;;;;;;;;;;16.80;99.90;;;;;;5094693;28;19952;-47
2024/04/07 00:44:08;;;;;;;;;;;16.70;99.90;;;;;;5098652;28;20181;-47
2024/04/07 00:46:33;;;;;;;;;;;16.70;99.90;;;;;;5104678;28;19919;-50
2024/04/07 00:49:00;;;;;;;;;;;16.70;99.90;;;;;;5105530;28;19908;-52
2024/04/07 00:51:25;;;;;;;;;;;16.70;99.90;;;;;;5105843;28;20450;-52
2024/04/07 00:53:51;;;;;;;;;;;16.70;99.90;;;;;;5105987;28;20031;-51
2024/04/07 00:56:16;;;;;;;;;;;16.70;99.90;;;;;;5107410;28;19908;-52
2024/04/07 00:58:42;;;;;;;;;;;16.70;99.90;;;;;;5107024;28;20553;-52
2024/04/07 01:01:07;;;;;;;;;;;16.70;99.90;;;;;;5106594;28;19908;-52
2024/04/07 01:03:33;;;;;;;;;;;16.70;99.90;;;;;;5107755;28;20398;-49
2024/04/07 01:05:59;;;;;;;;;;;16.70;99.90;;;;;;5107417;28;19912;-53
2024/04/07 01:08:24;;;;;;;;;;;16.70;99.90;;;;;;5107772;28;19908;-51
2024/04/07 01:10:51;;;;;;;;;;;16.70;99.90;;;;;;5109052;28;19915;-52
2024/04/07 01:13:16;;;;;;;;;;;16.60;99.90;;;;;;5108215;28;20268;-51
2024/04/07 01:15:42;;;;;;;;;;;16.60;99.90;;;;;;5110273;28;19973;-49
2024/04/07 01:18:07;;;;;;;;;;;16.60;99.90;;;;;;5107838;28;19926;-53
2024/04/07 01:20:33;;;;;;;;;;;16.60;99.90;;;;;;5110945;28;19918;-53
2024/04/07 01:23:01;;;;;;;;;;;16.60;99.90;;;;;;5108731;28;20472;-53
2024/04/07 01:25:27;;;;;;;;;;;16.60;99.90;;;;;;5112868;28;20282;-52
2024/04/07 01:27:57;;;;;;;;;;;16.60;99.90;;;;;;5109507;28;19912;-51
2024/04/07 01:30:23;;;;;;;;;;;16.60;99.90;;;;;;5094607;28;20011;-53
2024/04/07 01:32:48;;;;;;;;;;;16.60;99.90;;;;;;5108476;28;19908;-52
2024/04/07 01:35:14;;;;;;;;;;;16.50;99.90;;;;;;5113779;28;20387;-51
2024/04/07 01:37:40;;;;;;;;;;;16.50;99.90;;;;;;5099261;28;20295;-50
2024/04/07 01:40:08;;;;;;;;;;;16.50;99.90;;;;;;5104544;28;20033;-51
2024/04/07 01:42:34;;;;;;;;;;;16.50;99.90;;;;;;5104335;28;19912;-51
2024/04/07 01:45:00;;;;;;;;;;;16.50;99.90;;;;;;5105749;28;19912;-52
2024/04/07 01:47:25;;;;;;;;;;;16.50;99.90;;;;;;5104066;28;20003;-53
2024/04/07 01:49:51;;;;;;;;;;;16.50;99.90;;;;;;5102529;28;20141;-53
2024/04/07 01:52:17;;;;;;;;;;;16.50;99.90;;;;;;5096807;28;19915;-52
2024/04/07 01:54:43;;;;;;;;;;;16.50;99.90;;;;;;5097647;28;20014;-52
2024/04/07 01:57:09;;;;;;;;;;;16.50;99.90;;;;;;5098812;28;20274;-47
2024/04/07 01:59:34;;;;;;;;;;;16.50;99.90;;;;;;5096776;28;20010;-47
2024/04/07 02:02:00;;;;;;;;;;;16.50;99.90;;;;;;5095867;28;19915;-49
2024/04/07 02:04:28;;;;;;;;;;;16.50;99.90;;;;;;5105169;28;19940;-47
2024/04/07 02:06:53;;;;;;;;;;;16.50;99.90;;;;;;5097291;28;19933;-47
2024/04/07 02:09:20;;;;;;;;;;;16.50;99.90;;;;;;5098112;28;20445;-47
2024/04/07 02:11:46;;;;;;;;;;;16.50;99.90;;;;;;5088499;28;21011;-47
2024/04/07 02:14:12;;;;;;;;;;;16.50;99.90;;;;;;5095536;28;20149;-47
2024/04/07 02:16:37;;;;;;;;;;;16.50;99.90;;;;;;5101591;28;20096;-46
2024/04/07 02:19:03;;;;;;;;;;;16.50;99.90;;;;;;5103484;28;19975;-47
2024/04/07 02:21:28;;;;;;;;;;;16.50;99.90;;;;;;5081444;28;20003;-49
2024/04/07 02:23:54;;;;;;;;;;;16.50;99.90;;;;;;5095094;28;19912;-47
2024/04/07 02:26:20;;;;;;;;;;;16.50;99.90;;;;;;5107060;28;20014;-48
2024/04/07 02:28:45;;;;;;;;;;;16.60;99.90;;;;;;5103700;28;20493;-47
2024/04/07 02:31:11;;;;;;;;;;;16.50;99.90;;;;;;5092186;28;20444;-47
2024/04/07 02:33:38;;;;;;;;;;;16.50;99.90;;;;;;5096212;28;20287;-48
2024/04/07 02:36:03;;;;;;;;;;;16.50;99.90;;;;;;5106339;28;20695;-48
2024/04/07 02:38:29;;;;;;;;;;;16.50;99.90;;;;;;5095494;28;19914;-47
2024/04/07 02:40:55;;;;;;;;;;;16.50;99.90;;;;;;5103573;28;20409;-48
2024/04/07 02:43:20;;;;;;;;;;;16.50;99.90;;;;;;5110242;28;19965;-47
2024/04/07 02:48:30;;;;;;;;;;;16.50;99.90;;;;;;5097759;28;19915;-49
2024/04/07 02:50:57;;;;;;;;;;;16.40;99.90;;;;;;5101824;28;19912;-47
2024/04/07 02:53:23;;;;;;;;;;;16.40;99.90;;;;;;5111485;28;19911;-48
2024/04/07 02:55:49;;;;;;;;;;;16.40;99.90;;;;;;5101022;28;19966;-48
2024/04/07 02:58:14;;;;;;;;;;;16.40;99.90;;;;;;5098694;28;19912;-48
2024/04/07 03:00:40;;;;;;;;;;;16.40;99.90;;;;;;5108037;28;19907;-48
2024/04/07 03:03:05;;;;;;;;;;;16.40;99.90;;;;;;5110371;28;19912;-50
2024/04/07 03:05:31;;;;;;;;;;;16.40;99.90;;;;;;5105641;28;19912;-47
2024/04/07 03:07:56;;;;;;;;;;;16.40;99.90;;;;;;5104665;28;19942;-52
2024/04/07 03:10:22;;;;;;;;;;;16.30;99.90;;;;;;5109960;28;20403;-52
2024/04/07 03:12:47;;;;;;;;;;;16.40;99.90;;;;;;5111478;28;20382;-51
2024/04/07 03:15:13;;;;;;;;;;;16.40;99.90;;;;;;5109415;28;20391;-52
2024/04/07 03:17:39;;;;;;;;;;;16.40;99.90;;;;;;5112911;28;19991;-53
2024/04/07 03:20:05;;;;;;;;;;;16.30;99.90;;;;;;5111200;28;19919;-51
2024/04/07 03:22:30;;;;;;;;;;;16.30;99.90;;;;;;5110660;28;20019;-52
2024/04/07 03:24:56;;;;;;;;;;;16.30;99.90;;;;;;5099811;28;19935;-49
2024/04/07 03:27:22;;;;;;;;;;;16.30;99.90;;;;;;5105485;28;19911;-51
2024/04/07 03:29:47;;;;;;;;;;;16.20;99.90;;;;;;5092130;28;19908;-51
2024/04/07 03:32:13;;;;;;;;;;;16.20;99.90;;;;;;5100248;28;19923;-51
2024/04/07 03:34:38;;;;;;;;;;;16.20;99.90;;;;;;5093609;28;19912;-52
2024/04/07 03:37:07;;;;;;;;;;;16.20;99.90;;;;;;5093478;28;19966;-53
2024/04/07 03:39:33;;;;;;;;;;;16.20;99.90;;;;;;5093116;28;19908;-52
2024/04/07 03:41:59;;;;;;;;;;;16.30;99.90;;;;;;5095816;28;19915;-52
2024/04/07 03:44:26;;;;;;;;;;;16.30;99.90;;;;;;5096152;28;20744;-51
2024/04/07 03:46:51;;;;;;;;;;;16.20;99.90;;;;;;5095292;28;20371;-52
2024/04/07 03:49:17;;;;;;;;;;;16.20;99.90;;;;;;5096013;28;19908;-52
2024/04/07 03:51:43;;;;;;;;;;;16.30;99.90;;;;;;5097591;28;19912;-51
2024/04/07 03:54:08;;;;;;;;;;;16.20;99.90;;;;;;5096902;28;19916;-51
2024/04/07 03:56:34;;;;;;;;;;;16.20;99.90;;;;;;5099167;28;20271;-53
2024/04/07 03:58:59;;;;;;;;;;;16.20;99.90;;;;;;5096632;28;20010;-49
2024/04/07 04:01:26;;;;;;;;;;;16.30;99.90;;;;;;5099805;28;19920;-53
2024/04/07 04:03:52;;;;;;;;;;;16.20;99.90;;;;;;5097312;28;19908;-52
2024/04/07 04:06:18;;;;;;;;;;;16.20;99.90;;;;;;5096854;28;19984;-51
2024/04/07 04:08:44;;;;;;;;;;;16.20;99.90;;;;;;5098035;28;20375;-47
2024/04/07 04:11:11;;;;;;;;;;;16.20;99.90;;;;;;5101215;28;19955;-48
2024/04/07 04:13:36;;;;;;;;;;;16.30;99.90;;;;;;5094075;28;19908;-49
2024/04/07 04:16:02;;;;;;;;;;;16.20;99.90;;;;;;5100094;28;20283;-47
2024/04/07 04:18:28;;;;;;;;;;;16.30;99.90;;;;;;5097196;28;20387;-48
2024/04/07 04:20:53;;;;;;;;;;;16.20;99.90;;;;;;5103022;28;19957;-47
2024/04/07 04:23:19;;;;;;;;;;;16.20;99.90;;;;;;5095672;28;19987;-50
2024/04/07 04:25:54;;;;;;;;;;;16.20;99.90;;;;;;5088561;28;20326;-51
2024/04/07 04:28:21;;;;;;;;;;;16.20;99.90;;;;;;5076103;28;19994;-51
2024/04/07 04:30:59;;;;;;;;;;;16.20;99.90;;;;;;5086622;28;19912;-49
2024/04/07 04:33:25;;;;;;;;;;;16.20;99.90;;;;;;5082399;28;19976;-49
2024/04/07 04:35:51;;;;;;;;;;;16.20;99.90;;;;;;5093947;28;20355;-49
2024/04/07 04:38:16;;;;;;;;;;;16.20;99.90;;;;;;5094124;28;19923;-48
2024/04/07 04:40:54;;;;;;;;;;;16.20;99.90;;;;;;5094109;28;19912;-47
2024/04/07 04:43:20;;;;;;;;;;;16.20;99.90;;;;;;5094224;28;19916;-48
2024/04/07 04:45:47;;;;;;;;;;;16.20;99.90;;;;;;5106136;28;19919;-48
2024/04/07 04:48:13;;;;;;;;;;;16.20;99.90;;;;;;5089988;28;20002;-48
2024/04/07 04:50:38;;;;;;;;;;;16.20;99.90;;;;;;5094518;28;19963;-51
2024/04/07 04:53:04;;;;;;;;;;;16.20;99.90;;;;;;5096628;28;20003;-48
2024/04/07 04:55:31;;;;;;;;;;;16.20;99.90;;;;;;5097267;28;20011;-50
2024/04/07 04:57:56;;;;;;;;;;;16.20;99.90;;;;;;5105663;28;19914;-51
2024/04/07 05:00:22;;;;;;;;;;;16.20;99.90;;;;;;5098823;28;20356;-49
2024/04/07 05:02:48;;;;;;;;;;;16.20;99.90;;;;;;5095849;28;20085;-47
2024/04/07 05:05:13;;;;;;;;;;;16.10;99.90;;;;;;5098269;28;19912;-47
2024/04/07 05:07:39;;;;;;;;;;;16.10;99.90;;;;;;5096899;28;19908;-47
2024/04/07 05:10:04;;;;;;;;;;;16.20;99.90;;;;;;5109936;28;19908;-46
2024/04/07 05:12:30;;;;;;;;;;;16.20;99.90;;;;;;5103760;28;19916;-46
2024/04/07 05:14:56;;;;;;;;;;;16.10;99.90;;;;;;5104453;28;19946;-50
2024/04/07 05:17:21;;;;;;;;;;;16.10;99.90;;;;;;5092827;28;19908;-49
2024/04/07 05:19:50;;;;;;;;;;;16.10;99.90;;;;;;5097468;28;19927;-47
2024/04/07 05:22:16;;;;;;;;;;;16.10;99.90;;;;;;5111530;28;19922;-49
2024/04/07 05:24:41;;;;;;;;;;;16.10;99.90;;;;;;5098614;28;19912;-50
2024/04/07 05:27:07;;;;;;;;;;;16.10;99.90;;;;;;5102687;28;19912;-47
2024/04/07 05:29:32;;;;;;;;;;;16.10;99.90;;;;;;5106396;28;19911;-48
2024/04/07 05:31:58;;;;;;;;;;;16.10;99.90;;;;;;5099048;28;19942;-47
2024/04/07 05:34:26;;;;;;;;;;;16.10;99.90;;;;;;5096780;28;19934;-47
2024/04/07 05:36:51;;;;;;;;;;;16.10;99.90;;;;;;5111384;28;19918;-48
2024/04/07 05:39:17;;;;;;;;;;;16.10;99.90;;;;;;5103149;28;20350;-47
2024/04/07 05:41:42;;;;;;;;;;;16.00;99.90;;;;;;5100384;28;20321;-49
2024/04/07 05:44:08;;;;;;;;;;;16.00;99.90;;;;;;5096571;28;19931;-47
2024/04/07 05:46:33;;;;;;;;;;;16.00;99.90;;;;;;5096945;28;19916;-48
2024/04/07 05:48:59;;;;;;;;;;;16.00;99.90;;;;;;5105818;28;19908;-51
2024/04/07 05:51:24;;;;;;;;;;;16.00;99.90;;;;;;5093171;28;20390;-50
2024/04/07 05:53:50;;;;;;;;;;;16.00;99.90;;;;;;5104880;28;19912;-49
2024/04/07 05:56:15;;;;;;;;;;;16.00;99.90;;;;;;5113957;28;19908;-50
2024/04/07 05:58:41;;;;;;;;;;;16.00;99.90;;;;;;5113427;28;19961;-50
2024/04/07 06:01:07;;;;;;;;;;;16.00;99.90;;;;;;5110045;28;19912;-47
2024/04/07 06:03:32;;;;;;;;;;;16.00;99.90;;;;;;5108497;28;19918;-49
2024/04/07 06:06:00;;;;;;;;;;;16.00;99.90;;;;;;5110155;28;19998;-49
2024/04/07 06:08:26;;;;;;;;;;;16.00;99.90;;;;;;5107961;28;19912;-49
2024/04/07 06:10:51;;;;;;;;;;;15.90;99.90;;;;;;5102326;28;19977;-49
2024/04/07 06:13:17;;;;;;;;;;;16.00;99.90;;;;;;5103279;28;19908;-49
2024/04/07 06:15:42;;;;;;;;;;;16.00;99.90;;;;;;5102504;28;19931;-51
2024/04/07 06:18:09;;;;;;;;;;;16.00;99.90;;;;;;5100144;28;19920;-47
2024/04/07 06:20:34;;;;;;;;;;;16.00;99.90;;;;;;5101965;28;19920;-51
2024/04/07 06:23:00;;;;;;;;;;;16.00;99.90;;;;;;5099516;28;19923;-50
2024/04/07 06:25:25;;;;;;;;;;;16.00;99.90;;;;;;5102488;28;20878;-50
2024/04/07 06:27:51;;;;;;;;;;;16.00;99.90;;;;;;5100301;28;19916;-51
2024/04/07 06:30:16;;;;;;;;;;;16.00;99.90;;;;;;5100334;28;20322;-48
2024/04/07 06:32:42;;;;;;;;;;;16.00;99.90;;;;;;5102939;28;20295;-51
2024/04/07 06:35:07;;;;;;;;;;;16.00;99.90;;;;;;5102902;28;20299;-49
2024/04/07 06:37:33;;;;;;;;;;;16.00;99.90;;;;;;5094043;28;19916;-47
2024/04/07 06:39:58;;;;;;;;;;;16.00;99.90;;;;;;5102350;28;19916;-49
2024/04/07 06:42:30;;;;;;;;;;;16.00;99.90;;;;;;5108729;28;19922;-50
2024/04/07 06:44:56;;;;;;;;;;;16.00;99.90;;;;;;5113738;28;19907;-47
2024/04/07 06:47:23;;;;;;;;;;;16.00;99.90;;;;;;5111382;28;20023;-46
2024/04/07 06:49:52;;;;;;;;;;;16.00;99.90;;;;;;5115209;28;19908;-46
2024/04/07 06:52:18;;;;;;;;;;;15.90;99.90;;;;;;5114069;28;19958;-48
2024/04/07 06:54:43;;;;;;;;;;;16.00;99.90;;;;;;5111575;28;20260;-48
2024/04/07 06:57:09;;;;;;;;;;;16.00;99.90;;;;;;5102277;28;19923;-46
2024/04/07 06:59:35;;;;;;;;;;;16.00;99.90;;;;;;5112755;28;19946;-47
2024/04/07 07:02:02;;;;;;;;;;;16.00;99.90;;;;;;5112062;28;19913;-47
2024/04/07 07:04:28;;;;;;;;;;;16.00;99.90;;;;;;5106064;28;19947;-47
2024/04/07 07:06:53;;;;;;;;;;;16.00;99.90;;;;;;5111020;28;19924;-46
2024/04/07 07:09:18;;;;;;;;;;;16.00;99.90;;;;;;5108123;28;19915;-47
2024/04/07 07:11:44;;;;;;;;;;;16.00;99.90;;;;;;5109944;28;19916;-47
2024/04/07 07:14:10;;;;;;;;;;;15.90;99.90;;;;;;5113861;28;19922;-47
2024/04/07 07:16:36;;;;;;;;;;;15.90;99.90;;;;;;5112814;28;19908;-47
2024/04/07 07:19:01;;;;;;;;;;;15.90;99.90;;;;;;5090102;28;19943;-48
2024/04/07 07:21:27;;;;;;;;;;;15.90;99.90;;;;;;5110456;28;19911;-46
2024/04/07 07:23:52;;;;;;;;;;;15.90;99.90;;;;;;5100040;28;19959;-48
2024/04/07 07:26:18;;;;;;;;;;;15.90;99.90;;;;;;5092073;28;19922;-46
2024/04/07 07:28:43;;;;;;;;;;;16.00;99.90;;;;;;5089150;28;20770;-46
2024/04/07 07:31:09;;;;;;;;;;;16.00;99.90;;;;;;5087833;28;19915;-48
2024/04/07 07:33:34;;;;;;;;;;;15.90;99.90;;;;;;5103406;28;19943;-47
2024/04/07 07:36:00;;;;;;;;;;;15.90;99.90;;;;;;5095641;28;20016;-46
2024/04/07 07:38:26;;;;;;;;;;;15.90;99.90;;;;;;5108144;28;19912;-46
2024/04/07 07:40:51;;;;;;;;;;;16.00;99.90;;;;;;5107215;28;19916;-47
2024/04/07 07:43:17;;;;;;;;;;;15.90;99.90;;;;;;5108562;28;19947;-48
2024/04/07 07:45:45;;;;;;;;;;;16.00;99.90;;;;;;5109569;28;20049;-46
2024/04/07 07:48:10;;;;;;;;;;;15.90;99.90;;;;;;5105090;28;19916;-47
2024/04/07 07:50:39;;;;;;;;;;;16.00;99.90;;;;;;5109285;28;19919;-46
2024/04/07 07:53:05;;;;;;;;;;;16.00;99.90;;;;;;5109416;28;19912;-47
2024/04/07 07:55:30;;;;;;;;;;;16.00;99.90;;;;;;5112505;28;19914;-51
2024/04/07 07:57:56;;;;;;;;;;;16.00;99.90;;;;;;5110901;28;19971;-51
2024/04/07 08:00:23;;;;;;;;;;;16.00;99.90;;;;;;5109153;28;19975;-51
2024/04/07 08:02:52;;;;;;;;;;;16.00;99.90;;;;;;5109601;28;19908;-52
2024/04/07 08:05:20;;;;;;;;;;;16.10;99.90;;;;;;5109858;28;20610;-51
2024/04/07 08:07:46;;;;;;;;;;;16.10;99.90;;;;;;5110712;28;19908;-49
2024/04/07 08:10:12;;;;;;;;;;;16.10;99.90;;;;;;5108564;28;19915;-50
2024/04/07 08:12:38;;;;;;;;;;;16.10;99.90;;;;;;5103248;28;19911;-52
2024/04/07 08:15:04;;;;;;;;;;;16.10;99.90;;;;;;5109660;28;19923;-53
2024/04/07 08:17:29;;;;;;;;;;;16.10;99.90;;;;;;5110464;28;19927;-51
2024/04/07 08:19:55;;;;;;;;;;;16.10;99.90;;;;;;5107005;28;19916;-51
2024/04/07 08:22:21;;;;;;;;;;;16.10;99.90;;;;;;5110013;28;19951;-52
2024/04/07 08:24:46;;;;;;;;;;;16.10;99.90;;;;;;5107238;28;19908;-47
2024/04/07 08:27:12;;;;;;;;;;;16.10;99.90;;;;;;5112383;28;19911;-50
2024/04/07 08:29:38;;;;;;;;;;;16.10;99.90;;;;;;5112326;28;19912;-48
2024/04/07 08:32:03;;;;;;;;;;;16.10;99.90;;;;;;5101785;28;20305;-49
2024/04/07 08:34:29;;;;;;;;;;;16.10;99.90;;;;;;5110031;28;19911;-51
2024/04/07 08:36:54;;;;;;;;;;;16.10;99.90;;;;;;5101191;28;19912;-48
2024/04/07 08:39:20;;;;;;;;;;;16.10;99.90;;;;;;5088323;28;20337;-48
2024/04/07 08:41:46;;;;;;;;;;;16.10;99.90;;;;;;5092135;28;19916;-47
2024/04/07 08:44:13;;;;;;;;;;;16.10;99.90;;;;;;5095818;28;20334;-53
2024/04/07 08:46:40;;;;;;;;;;;16.00;99.90;;;;;;5098210;28;20003;-50
2024/04/07 08:49:06;;;;;;;;;;;16.00;99.90;;;;;;5100066;28;20359;-50
2024/04/07 08:51:32;;;;;;;;;;;16.00;99.90;;;;;;5107656;28;19972;-49
2024/04/07 08:53:59;;;;;;;;;;;16.00;99.90;;;;;;5101198;28;19919;-48
2024/04/07 08:56:24;;;;;;;;;;;16.00;99.90;;;;;;5106007;28;19920;-51
2024/04/07 08:58:51;;;;;;;;;;;16.00;99.90;;;;;;5112212;28;19919;-48
2024/04/07 09:01:17;;;;;;;;;;;15.90;99.90;;;;;;5104030;28;19924;-50
2024/04/07 09:03:43;;;;;;;;;;;15.90;99.90;;;;;;5095621;28;20357;-49
2024/04/07 09:06:08;;;;;;;;;;;15.90;99.90;;;;;;5094340;28;20011;-47
2024/04/07 09:08:35;;;;;;;;;;;15.90;99.90;;;;;;5098892;28;19920;-47
2024/04/07 09:11:00;;;;;;;;;;;15.90;99.90;;;;;;5098502;28;19930;-46
2024/04/07 09:13:26;;;;;;;;;;;15.90;99.90;;;;;;5101367;28;19919;-46
2024/04/07 09:15:51;;;;;;;;;;;15.90;99.90;;;;;;5099576;28;19917;-46
2024/04/07 09:18:18;;;;;;;;;;;15.90;99.90;;;;;;5094875;28;19931;-47
2024/04/07 09:20:44;;;;;;;;;;;15.90;99.90;;;;;;5094221;28;20013;-48
2024/04/07 09:23:10;;;;;;;;;;;15.90;99.90;;;;;;5089647;28;19923;-46
2024/04/07 09:25:35;;;;;;;;;;;15.80;99.90;;;;;;5083466;28;20278;-46
2024/04/07 09:28:02;;;;;;;;;;;15.80;99.90;;;;;;5083527;28;20303;-47
2024/04/07 09:30:28;;;;;;;;;;;15.80;99.90;;;;;;5098858;28;20153;-47
2024/04/07 09:32:54;;;;;;;;;;;15.80;99.90;;;;;;5090529;28;19912;-46
2024/04/07 09:35:20;;;;;;;;;;;15.80;99.90;;;;;;5102534;28;19953;-46
2024/04/07 09:37:45;;;;;;;;;;;15.80;99.90;;;;;;5105177;28;20383;-47
2024/04/07 09:40:11;;;;;;;;;;;15.80;99.90;;;;;;5106950;28;20252;-47
2024/04/07 09:42:37;;;;;;;;;;;15.80;99.90;;;;;;5089813;28;19948;-49
2024/04/07 09:45:05;;;;;;;;;;;15.80;99.90;;;;;;5091400;28;19927;-47
2024/04/07 09:47:33;;;;;;;;;;;15.80;99.90;;;;;;5087890;28;19916;-47
2024/04/07 09:50:04;;;;;;;;;;;15.80;99.90;;;;;;5084864;28;19966;-47
2024/04/07 09:52:36;;;;;;;;;;;15.80;99.90;;;;;;5084118;28;20021;-46
2024/04/07 09:55:05;;;;;;;;;;;15.80;99.90;;;;;;5083455;28;19966;-46
2024/04/07 09:57:31;;;;;;;;;;;15.80;99.90;;;;;;5089104;28;20045;-46
2024/04/07 09:59:57;;;;;;;;;;;15.80;99.90;;;;;;5093771;28;19943;-46
2024/04/07 10:02:23;;;;;;;;;;;15.80;99.90;;;;;;5085885;28;19962;-46
2024/04/07 10:04:48;;;;;;;;;;;15.80;99.90;;;;;;5088119;28;21013;-46
2024/04/07 10:07:16;;;;;;;;;;;15.80;99.90;;;;;;5089871;28;19916;-47
2024/04/07 10:09:42;;;;;;;;;;;15.80;99.90;;;;;;5087767;28;19920;-47
2024/04/07 10:12:07;;;;;;;;;;;15.80;99.90;;;;;;5089387;28;19916;-46
2024/04/07 10:14:37;;;;;;;;;;;15.90;99.90;;;;;;5087053;28;19949;-47
2024/04/07 10:17:02;;;;;;;;;;;15.90;99.90;;;;;;5089186;28;20047;-47
2024/04/07 10:19:28;;;;;;;;;;;15.90;99.90;;;;;;5085627;28;20015;-50
2024/04/07 10:21:56;;;;;;;;;;;15.90;99.90;;;;;;5088796;28;19919;-51
2024/04/07 10:24:22;;;;;;;;;;;15.90;99.90;;;;;;5086177;28;19924;-52
2024/04/07 10:26:51;;;;;;;;;;;15.90;99.90;;;;;;5091310;28;20065;-48
2024/04/07 10:29:17;;;;;;;;;;;15.90;99.90;;;;;;5089284;28;20394;-51
2024/04/07 10:31:42;;;;;;;;;;;15.90;99.90;;;;;;5094874;28;19916;-51
2024/04/07 10:34:09;;;;;;;;;;;15.90;99.90;;;;;;5094458;28;20346;-52
2024/04/07 10:36:34;;;;;;;;;;;15.90;99.90;;;;;;5091113;28;19931;-47
2024/04/07 10:39:00;;;;;;;;;;;15.90;99.90;;;;;;5096306;28;19920;-52
2024/04/07 10:41:27;;;;;;;;;;;15.90;99.90;;;;;;5093131;28;19916;-49
2024/04/07 10:43:53;;;;;;;;;;;15.90;99.90;;;;;;5094293;28;19916;-51
2024/04/07 10:46:19;;;;;;;;;;;15.90;99.90;;;;;;5092564;28;20346;-51
2024/04/07 10:48:44;;;;;;;;;;;15.90;99.90;;;;;;5081802;28;19924;-48
2024/04/07 10:51:12;;;;;;;;;;;15.80;99.90;;;;;;5095995;28;19928;-51
2024/04/07 10:53:41;;;;;;;;;;;15.80;99.90;;;;;;5084102;28;19948;-52
2024/04/07 10:56:06;;;;;;;;;;;15.80;99.90;;;;;;5108164;28;20194;-51
2024/04/07 10:58:33;;;;;;;;;;;15.80;99.90;;;;;;5104487;28;19922;-53
2024/04/07 11:00:58;;;;;;;;;;;15.80;99.90;;;;;;5098932;28;19912;-51
2024/04/07 11:03:25;;;;;;;;;;;15.80;99.90;;;;;;5110413;28;19912;-52
2024/04/07 11:05:51;;;;;;;;;;;15.80;99.90;;;;;;5110789;28;19908;-53
2024/04/07 11:08:17;;;;;;;;;;;15.70;99.90;;;;;;5107455;28;19915;-52
2024/04/07 11:10:43;;;;;;;;;;;15.80;99.90;;;;;;5098458;28;19920;-52
2024/04/07 11:13:08;;;;;;;;;;;15.80;99.90;;;;;;5073103;28;20362;-53
2024/04/07 11:15:34;;;;;;;;;;;15.80;99.90;;;;;;5091640;28;19948;-50
2024/04/07 11:17:59;;;;;;;;;;;15.80;99.90;;;;;;5102022;28;19950;-52
2024/04/07 11:20:25;;;;;;;;;;;15.80;99.90;;;;;;5092451;28;19919;-52
2024/04/07 11:22:51;;;;;;;;;;;15.80;99.90;;;;;;5096498;28;20368;-52
2024/04/07 11:25:16;;;;;;;;;;;15.80;99.90;;;;;;5102224;28;19998;-52
2024/04/07 11:27:43;;;;;;;;;;;15.80;99.90;;;;;;5089814;28;19920;-49
2024/04/07 11:30:09;;;;;;;;;;;15.80;99.90;;;;;;5091962;28;19961;-47
2024/04/07 11:32:37;;;;;;;;;;;15.80;99.90;;;;;;5092181;28;19920;-46
2024/04/07 11:35:04;;;;;;;;;;;15.80;99.90;;;;;;5089076;28;20283;-46
2024/04/07 11:37:29;;;;;;;;;;;15.80;99.90;;;;;;5089869;28;19912;-46
2024/04/07 11:39:55;;;;;;;;;;;15.80;99.90;;;;;;5100423;28;19914;-46
2024/04/07 11:42:23;;;;;;;;;;;15.80;99.90;;;;;;5094200;28;20003;-46
2024/04/07 11:44:49;;;;;;;;;;;15.80;99.90;;;;;;5091449;28;19920;-46
2024/04/07 11:47:15;;;;;;;;;;;15.80;99.90;;;;;;5091633;28;19916;-48
2024/04/07 11:49:41;;;;;;;;;;;15.80;99.90;;;;;;5091422;28;19916;-46
2024/04/07 11:52:06;;;;;;;;;;;15.90;99.90;;;;;;5087031;28;19924;-46
2024/04/07 11:54:32;;;;;;;;;;;15.90;99.90;;;;;;5093940;28;19912;-46
2024/04/07 11:56:57;;;;;;;;;;;15.90;99.90;;;;;;5092881;28;20299;-46
2024/04/07 11:59:23;;;;;;;;;;;15.80;99.90;;;;;;5087060;28;19913;-47
2024/04/07 12:01:48;;;;;;;;;;;15.80;99.90;;;;;;5089917;28;19995;-47
2024/04/07 12:04:14;;;;;;;;;;;15.80;99.90;;;;;;5090380;28;19927;-47
2024/04/07 12:06:40;;;;;;;;;;;15.90;99.90;;;;;;5089392;28;19983;-46
2024/04/07 12:09:07;;;;;;;;;;;15.90;99.90;;;;;;5096615;28;20278;-46
2024/04/07 12:11:36;;;;;;;;;;;15.90;99.90;;;;;;5095442;28;20317;-46
2024/04/07 12:14:02;;;;;;;;;;;15.90;99.90;;;;;;5073033;28;20337;-46
2024/04/07 12:16:27;;;;;;;;;;;15.90;99.90;;;;;;5093146;28;19912;-46
2024/04/07 12:18:53;;;;;;;;;;;15.90;99.90;;;;;;5092218;28;20337;-46
2024/04/07 12:21:18;;;;;;;;;;;15.90;99.90;;;;;;5100691;28;19908;-46
2024/04/07 12:23:44;;;;;;;;;;;15.90;99.90;;;;;;5092486;28;19966;-47
2024/04/07 12:26:09;;;;;;;;;;;15.90;99.90;;;;;;5093972;28;19915;-46
2024/04/07 12:28:35;;;;;;;;;;;15.90;99.90;;;;;;5100844;28;19908;-47
2024/04/07 12:31:00;;;;;;;;;;;15.90;99.90;;;;;;5093707;28;19969;-46
2024/04/07 12:33:26;;;;;;;;;;;15.90;99.90;;;;;;5097406;28;19915;-46
2024/04/07 12:35:53;;;;;;;;;;;15.90;99.90;;;;;;5112329;28;20274;-47
2024/04/07 12:38:18;;;;;;;;;;;15.90;99.90;;;;;;5096194;28;19912;-46
2024/04/07 12:40:44;;;;;;;;;;;15.90;99.90;;;;;;5093462;28;19958;-49
2024/04/07 12:43:10;;;;;;;;;;;15.90;99.90;;;;;;5093028;28;19954;-47
2024/04/07 12:45:36;;;;;;;;;;;15.90;99.90;;;;;;5084240;28;19911;-52
2024/04/07 12:48:01;;;;;;;;;;;15.90;99.90;;;;;;5090532;28;20439;-51
2024/04/07 12:50:27;;;;;;;;;;;15.90;99.90;;;;;;5092403;28;19938;-52
2024/04/07 12:52:53;;;;;;;;;;;15.90;99.90;;;;;;5097499;28;19912;-52
2024/04/07 12:55:19;;;;;;;;;;;15.90;99.90;;;;;;5103156;28;20343;-49
2024/04/07 12:57:44;;;;;;;;;;;15.90;99.90;;;;;;5093363;28;19994;-49
2024/04/07 13:00:14;;;;;;;;;;;15.90;99.90;;;;;;5093849;28;19935;-53
2024/04/07 13:02:42;;;;;;;;;;;15.90;99.90;;;;;;5094036;28;20362;-53
2024/04/07 13:05:08;;;;;;;;;;;15.90;99.90;;;;;;5098241;28;19908;-47
2024/04/07 13:07:34;;;;;;;;;;;15.80;99.90;;;;;;5093525;28;19918;-48
2024/04/07 13:09:59;;;;;;;;;;;15.80;99.90;;;;;;5091047;28;20367;-47
2024/04/07 13:12:25;;;;;;;;;;;15.80;99.90;;;;;;5088678;28;19920;-49
2024/04/07 13:14:51;;;;;;;;;;;15.80;99.90;;;;;;5099364;28;19934;-47
2024/04/07 13:17:16;;;;;;;;;;;15.80;99.90;;;;;;5092199;28;19923;-48
2024/04/07 13:19:42;;;;;;;;;;;15.80;99.90;;;;;;5094117;28;20315;-49
2024/04/07 13:22:08;;;;;;;;;;;15.80;99.90;;;;;;5091583;28;19916;-49
2024/04/07 13:24:33;;;;;;;;;;;15.80;99.90;;;;;;5091784;28;19931;-48
2024/04/07 13:26:59;;;;;;;;;;;15.80;99.90;;;;;;5093018;28;20297;-47
2024/04/07 13:29:25;;;;;;;;;;;15.80;99.90;;;;;;5091776;28;19989;-47
2024/04/07 13:31:50;;;;;;;;;;;15.80;99.90;;;;;;5104947;28;19924;-47
2024/04/07 13:34:16;;;;;;;;;;;15.80;99.90;;;;;;5096300;28;19955;-48
2024/04/07 13:36:41;;;;;;;;;;;15.80;99.90;;;;;;5095210;28;19980;-49
2024/04/07 13:39:10;;;;;;;;;;;15.70;99.90;;;;;;5094289;28;19962;-47
2024/04/07 13:41:37;;;;;;;;;;;15.70;99.90;;;;;;5095475;28;20394;-51
2024/04/07 13:44:03;;;;;;;;;;;15.70;99.90;;;;;;5092248;28;19909;-52
2024/04/07 13:46:28;;;;;;;;;;;15.70;99.90;;;;;;5096573;28;20287;-52
2024/04/07 13:48:54;;;;;;;;;;;15.70;99.90;;;;;;5101651;28;19915;-47
2024/04/07 13:51:19;;;;;;;;;;;15.60;99.90;;;;;;5099712;28;20008;-52
2024/04/07 13:53:45;;;;;;;;;;;15.60;99.90;;;;;;5109107;28;20446;-50
2024/04/07 13:56:10;;;;;;;;;;;15.60;99.90;;;;;;5089868;28;19919;-51
2024/04/07 13:58:37;;;;;;;;;;;15.60;99.90;;;;;;5099865;28;20367;-49
2024/04/07 14:01:02;;;;;;;;;;;15.60;99.90;;;;;;5097702;28;19999;-47
2024/04/07 14:03:28;;;;;;;;;;;15.50;99.90;;;;;;5094682;28;19943;-47
2024/04/07 14:05:54;;;;;;;;;;;15.60;99.90;;;;;;5082094;28;19912;-48
2024/04/07 14:08:19;;;;;;;;;;;15.50;99.90;;;;;;5095303;28;19913;-50
2024/04/07 14:10:48;;;;;;;;;;;15.50;99.90;;;;;;5095449;28;19995;-48